Time,TemperatureF,DewpointF,PressureIn,WindDirection,WindDirectionDegrees,WindSpeedMPH,WindSpeedGustMPH,Humidity,HourlyPrecipIn,Conditions,Clouds,dailyrainin,SoftwareType,DateUTC
2013-05-17 00:06:00,-999.0,-99.9,26.46,North,-999,-999.0,-999.0,-999,0.00,,,0.00,weatherlink.com 1.10,2013-05-17 04:06:00,
2013-05-17 00:21:00,-999.0,-99.9,26.46,North,-999,-999.0,-999.0,-999,0.00,,,0.00,weatherlink.com 1.10,2013-05-17 04:21:00,
2013-05-17 00:36:00,-999.0,-99.9,26.46,North,-999,-999.0,-999.0,-999,0.00,,,0.00,weatherlink.com 1.10,2013-05-17 04:36:00,
2013-05-17 00:52:00,-999.0,-99.9,26.46,North,-999,-999.0,-999.0,-999,0.00,,,0.00,weatherlink.com 1.10,2013-05-17 04:52:00,
2013-05-17 01:07:00,-999.0,-99.9,26.45,North,-999,-999.0,-999.0,-999,0.00,,,0.00,weatherlink.com 1.10,2013-05-17 05:07:00,
2013-05-17 01:22:00,-999.0,-99.9,26.45,North,-999,-999.0,-999.0,-999,0.00,,,0.00,weatherlink.com 1.10,2013-05-17 05:22:00,
2013-05-17 01:37:00,-999.0,-99.9,26.45,North,-999,-999.0,-999.0,-999,0.00,,,0.00,weatherlink.com 1.10,2013-05-17 05:37:00,
2013-05-17 01:52:00,-999.0,-99.9,26.45,North,-999,-999.0,-999.0,-999,0.00,,,0.00,weatherlink.com 1.10,2013-05-17 05:52:00,
2013-05-17 02:07:00,-999.0,-99.9,26.44,North,-999,-999.0,-999.0,-999,0.00,,,0.00,weatherlink.com 1.10,2013-05-17 06:07:00,
2013-05-17 02:22:00,-999.0,-99.9,26.44,North,-999,-999.0,-999.0,-999,0.00,,,0.00,weatherlink.com 1.10,2013-05-17 06:22:00,
2013-05-17 02:37:00,-999.0,-99.9,26.44,North,-999,-999.0,-999.0,-999,0.00,,,0.00,weatherlink.com 1.10,2013-05-17 06:37:00,
2013-05-17 02:52:00,-999.0,-99.9,26.45,North,-999,-999.0,-999.0,-999,0.00,,,0.00,weatherlink.com 1.10,2013-05-17 06:52:00,
2013-05-17 03:07:00,-999.0,-99.9,26.45,North,-999,-999.0,-999.0,-999,0.00,,,0.00,weatherlink.com 1.10,2013-05-17 07:07:00,
2013-05-17 03:22:00,-999.0,-99.9,26.45,North,-999,-999.0,-999.0,-999,0.00,,,0.00,weatherlink.com 1.10,2013-05-17 07:22:00,
2013-05-17 03:37:00,-999.0,-99.9,26.45,North,-999,-999.0,-999.0,-999,0.00,,,0.00,weatherlink.com 1.10,2013-05-17 07:37:00,
2013-05-17 03:52:00,-999.0,-99.9,26.46,North,-999,-999.0,-999.0,-999,0.00,,,0.00,weatherlink.com 1.10,2013-05-17 07:52:00,
2013-05-17 04:08:00,-999.0,-99.9,26.46,North,-999,-999.0,-999.0,-999,0.00,,,0.00,weatherlink.com 1.10,2013-05-17 08:08:00,
2013-05-17 04:23:00,-999.0,-99.9,26.46,North,-999,-999.0,-999.0,-999,0.00,,,0.00,weatherlink.com 1.10,2013-05-17 08:23:00,
2013-05-17 04:38:00,-999.0,-99.9,26.46,North,-999,-999.0,-999.0,-999,0.00,,,0.00,weatherlink.com 1.10,2013-05-17 08:38:00,
2013-05-17 04:53:00,-999.0,-99.9,26.46,North,-999,-999.0,-999.0,-999,0.00,,,0.00,weatherlink.com 1.10,2013-05-17 08:53:00,
2013-05-17 05:08:00,-999.0,-99.9,26.47,North,-999,-999.0,-999.0,-999,0.00,,,0.00,weatherlink.com 1.10,2013-05-17 09:08:00,
2013-05-17 05:23:00,-999.0,-99.9,26.47,North,-999,-999.0,-999.0,-999,0.00,,,0.00,weatherlink.com 1.10,2013-05-17 09:23:00,
2013-05-17 05:38:00,-999.0,-99.9,26.47,North,-999,-999.0,-999.0,-999,0.00,,,0.00,weatherlink.com 1.10,2013-05-17 09:38:00,
2013-05-17 05:53:00,-999.0,-99.9,26.47,North,-999,-999.0,-999.0,-999,0.00,,,0.00,weatherlink.com 1.10,2013-05-17 09:53:00,
2013-05-17 06:08:00,-999.0,-99.9,26.48,North,-999,-999.0,-999.0,-999,0.00,,,0.00,weatherlink.com 1.10,2013-05-17 10:08:00,
2013-05-17 06:23:00,-999.0,-99.9,26.48,North,-999,-999.0,-999.0,-999,0.00,,,0.00,weatherlink.com 1.10,2013-05-17 10:23:00,
2013-05-17 06:38:00,-999.0,-99.9,26.48,North,-999,-999.0,-999.0,-999,0.00,,,0.00,weatherlink.com 1.10,2013-05-17 10:38:00,
2013-05-17 06:53:00,-999.0,-99.9,26.48,North,-999,-999.0,-999.0,-999,0.00,,,0.00,weatherlink.com 1.10,2013-05-17 10:53:00,
2013-05-17 07:08:00,-999.0,-99.9,26.49,North,-999,-999.0,-999.0,-999,0.00,,,0.00,weatherlink.com 1.10,2013-05-17 11:08:00,
2013-05-17 07:23:00,-999.0,-99.9,26.48,North,-999,-999.0,-999.0,-999,0.00,,,0.00,weatherlink.com 1.10,2013-05-17 11:23:00,
2013-05-17 07:38:00,50.4,48.0,26.49,NNW,343,0.0,0.0,91,0.00,,,0.00,weatherlink.com 1.10,2013-05-17 11:38:00,
2013-05-17 07:54:00,51.3,49.0,26.50,NNW,343,2.0,2.0,90,0.00,,,0.00,weatherlink.com 1.10,2013-05-17 11:54:00,
2013-05-17 08:09:00,54.4,52.0,26.50,NNW,343,0.0,4.0,90,0.00,,,0.00,weatherlink.com 1.10,2013-05-17 12:09:00,
2013-05-17 08:24:00,58.7,53.0,26.50,NNW,344,5.0,6.0,82,0.00,,,0.00,weatherlink.com 1.10,2013-05-17 12:24:00,
2013-05-17 08:39:00,63.5,53.0,26.50,NNW,333,4.0,11.0,69,0.00,,,0.00,weatherlink.com 1.10,2013-05-17 12:39:00,
2013-05-17 08:54:00,64.8,54.0,26.50,North,355,8.0,10.0,69,0.00,,,0.00,weatherlink.com 1.10,2013-05-17 12:54:00,
2013-05-17 09:09:00,65.5,53.0,26.50,NNW,329,4.0,11.0,65,0.00,,,0.00,weatherlink.com 1.10,2013-05-17 13:09:00,
2013-05-17 09:24:00,65.8,53.0,26.51,North,11,8.0,12.0,64,0.00,,,0.00,weatherlink.com 1.10,2013-05-17 13:24:00,
2013-05-17 09:39:00,65.6,53.0,26.51,North,355,9.0,12.0,65,0.00,,,0.00,weatherlink.com 1.10,2013-05-17 13:39:00,
2013-05-17 09:54:00,65.5,53.0,26.51,NNE,13,6.0,9.0,64,0.00,,,0.00,weatherlink.com 1.10,2013-05-17 13:54:00,
2013-05-17 10:09:00,66.3,52.0,26.51,North,360,4.0,8.0,60,0.00,,,0.00,weatherlink.com 1.10,2013-05-17 14:09:00,
2013-05-17 10:24:00,66.8,53.0,26.51,NNW,342,1.0,5.0,61,0.00,,,0.00,weatherlink.com 1.10,2013-05-17 14:24:00,
2013-05-17 10:39:00,67.9,54.0,26.51,NNW,344,1.0,9.0,62,0.00,,,0.00,weatherlink.com 1.10,2013-05-17 14:39:00,
2013-05-17 10:54:00,68.4,53.0,26.51,NNW,345,5.0,5.0,58,0.00,,,0.00,weatherlink.com 1.10,2013-05-17 14:54:00,
2013-05-17 11:09:00,68.1,53.0,26.51,North,355,0.0,5.0,58,0.00,,,0.00,weatherlink.com 1.10,2013-05-17 15:09:00,
2013-05-17 11:24:00,68.8,54.0,26.51,ESE,116,2.0,8.0,59,0.00,,,0.00,weatherlink.com 1.10,2013-05-17 15:24:00,
2013-05-17 11:39:00,68.1,54.0,26.51,SSE,154,7.0,8.0,62,0.00,,,0.00,weatherlink.com 1.10,2013-05-17 15:39:00,
2013-05-17 11:54:00,68.8,53.0,26.51,ESE,108,0.0,7.0,58,0.00,,,0.00,weatherlink.com 1.10,2013-05-17 15:54:00,
2013-05-17 12:09:00,68.8,53.0,26.51,SE,132,5.0,10.0,58,0.00,,,0.00,weatherlink.com 1.10,2013-05-17 16:09:00,
2013-05-17 12:24:00,69.8,55.0,26.50,East,96,5.0,6.0,60,0.00,,,0.00,weatherlink.com 1.10,2013-05-17 16:24:00,
2013-05-17 12:39:00,69.6,54.0,26.51,ESE,109,1.0,7.0,59,0.00,,,0.00,weatherlink.com 1.10,2013-05-17 16:39:00,
2013-05-17 12:54:00,71.5,54.0,26.50,South,190,0.0,13.0,55,0.00,,,0.00,weatherlink.com 1.10,2013-05-17 16:54:00,
2013-05-17 13:09:00,71.6,53.0,26.50,SSE,163,8.0,15.0,53,0.00,,,0.00,weatherlink.com 1.10,2013-05-17 17:09:00,
2013-05-17 13:24:00,70.6,53.0,26.50,East,100,2.0,16.0,54,0.00,,,0.00,weatherlink.com 1.10,2013-05-17 17:24:00,
2013-05-17 13:39:00,71.1,55.0,26.50,SE,134,8.0,10.0,57,0.00,,,0.00,weatherlink.com 1.10,2013-05-17 17:39:00,
2013-05-17 13:54:00,70.4,54.0,26.50,SSW,213,1.0,10.0,57,0.00,,,0.00,weatherlink.com 1.10,2013-05-17 17:54:00,
2013-05-17 14:09:00,70.3,54.0,26.49,SE,129,6.0,10.0,56,0.00,,,0.00,weatherlink.com 1.10,2013-05-17 18:09:00,
2013-05-17 14:24:00,69.6,54.0,26.49,SE,140,0.0,13.0,57,0.00,,,0.00,weatherlink.com 1.10,2013-05-17 18:24:00,
2013-05-17 14:39:00,69.8,54.0,26.49,SSE,167,6.0,14.0,58,0.00,,,0.00,weatherlink.com 1.10,2013-05-17 18:39:00,
2013-05-17 14:54:00,70.3,54.0,26.49,South,176,3.0,8.0,57,0.00,,,0.00,weatherlink.com 1.10,2013-05-17 18:54:00,
2013-05-17 15:09:00,70.9,55.0,26.49,SSW,196,4.0,9.0,57,0.00,,,0.00,weatherlink.com 1.10,2013-05-17 19:09:00,
2013-05-17 15:24:00,69.8,55.0,26.49,SSE,158,2.0,10.0,59,0.00,,,0.00,weatherlink.com 1.10,2013-05-17 19:24:00,
2013-05-17 15:39:00,68.8,55.0,26.48,South,184,7.0,8.0,62,0.00,,,0.00,weatherlink.com 1.10,2013-05-17 19:39:00,
2013-05-17 15:54:00,68.8,56.0,26.48,SSW,212,1.0,9.0,63,0.00,,,0.00,weatherlink.com 1.10,2013-05-17 19:54:00,
2013-05-17 16:09:00,67.4,56.0,26.48,SSW,197,3.0,16.0,68,0.00,,,0.00,weatherlink.com 1.10,2013-05-17 20:09:00,
2013-05-17 16:24:00,65.3,58.0,26.48,SSE,165,0.0,6.0,78,0.01,,,0.01,weatherlink.com 1.10,2013-05-17 20:24:00,
2013-05-17 16:39:00,65.2,58.0,26.48,SSE,164,0.0,3.0,77,0.01,,,0.01,weatherlink.com 1.10,2013-05-17 20:39:00,
2013-05-17 16:54:00,66.8,58.0,26.47,NE,39,1.0,8.0,73,0.01,,,0.01,weatherlink.com 1.10,2013-05-17 20:54:00,
2013-05-17 17:09:00,67.3,57.0,26.47,East,94,1.0,7.0,70,0.01,,,0.01,weatherlink.com 1.10,2013-05-17 21:09:00,
2013-05-17 17:24:00,67.3,58.0,26.47,SE,127,3.0,5.0,71,0.00,,,0.01,weatherlink.com 1.10,2013-05-17 21:24:00,
2013-05-17 17:39:00,67.4,56.0,26.47,ESE,113,1.0,8.0,67,0.00,,,0.01,weatherlink.com 1.10,2013-05-17 21:39:00,
2013-05-17 17:54:00,67.9,56.0,26.47,SE,128,2.0,10.0,65,0.00,,,0.01,weatherlink.com 1.10,2013-05-17 21:54:00,
2013-05-17 18:09:00,68.1,57.0,26.47,SSE,148,0.0,8.0,67,0.00,,,0.01,weatherlink.com 1.10,2013-05-17 22:09:00,
2013-05-17 18:24:00,67.6,57.0,26.46,SSE,159,2.0,7.0,68,0.00,,,0.01,weatherlink.com 1.10,2013-05-17 22:24:00,
2013-05-17 18:39:00,67.4,56.0,26.47,SSE,158,0.0,5.0,67,0.00,,,0.01,weatherlink.com 1.10,2013-05-17 22:39:00,
2013-05-17 18:55:00,-999.0,-99.9,26.47,North,-999,-999.0,-999.0,-999,0.00,,,0.01,weatherlink.com 1.10,2013-05-17 22:55:00,
2013-05-17 19:10:00,-999.0,-99.9,26.47,North,-999,-999.0,-999.0,-999,0.00,,,0.01,weatherlink.com 1.10,2013-05-17 23:10:00,
2013-05-17 19:25:00,-999.0,-99.9,26.47,North,-999,-999.0,-999.0,-999,0.00,,,0.01,weatherlink.com 1.10,2013-05-17 23:25:00,
2013-05-17 19:40:00,-999.0,-99.9,26.48,North,-999,-999.0,-999.0,-999,0.00,,,0.01,weatherlink.com 1.10,2013-05-17 23:40:00,
2013-05-17 19:55:00,-999.0,-99.9,26.48,North,-999,-999.0,-999.0,-999,0.00,,,0.01,weatherlink.com 1.10,2013-05-17 23:55:00,
2013-05-17 20:10:00,-999.0,-99.9,26.48,North,-999,-999.0,-999.0,-999,0.00,,,0.01,weatherlink.com 1.10,2013-05-18 00:10:00,
2013-05-17 20:25:00,-999.0,-99.9,26.48,North,-999,-999.0,-999.0,-999,0.00,,,0.01,weatherlink.com 1.10,2013-05-18 00:25:00,
2013-05-17 20:40:00,-999.0,-99.9,26.49,North,-999,-999.0,-999.0,-999,0.00,,,0.01,weatherlink.com 1.10,2013-05-18 00:40:00,
2013-05-17 20:55:00,-999.0,-99.9,26.49,North,-999,-999.0,-999.0,-999,0.00,,,0.01,weatherlink.com 1.10,2013-05-18 00:55:00,
2013-05-17 21:10:00,-999.0,-99.9,26.49,North,-999,-999.0,-999.0,-999,0.00,,,0.01,weatherlink.com 1.10,2013-05-18 01:10:00,
2013-05-17 21:25:00,-999.0,-99.9,26.49,North,-999,-999.0,-999.0,-999,0.00,,,0.01,weatherlink.com 1.10,2013-05-18 01:25:00,
2013-05-17 21:40:00,-999.0,-99.9,26.49,North,-999,-999.0,-999.0,-999,0.00,,,0.01,weatherlink.com 1.10,2013-05-18 01:40:00,
2013-05-17 21:55:00,-999.0,-99.9,26.50,North,-999,-999.0,-999.0,-999,0.00,,,0.01,weatherlink.com 1.10,2013-05-18 01:55:00,
2013-05-17 22:10:00,-999.0,-99.9,26.50,North,-999,-999.0,-999.0,-999,0.00,,,0.01,weatherlink.com 1.10,2013-05-18 02:10:00,
2013-05-17 22:26:00,-999.0,-99.9,26.51,North,-999,-999.0,-999.0,-999,0.00,,,0.01,weatherlink.com 1.10,2013-05-18 02:26:00,
2013-05-17 22:41:00,-999.0,-99.9,26.51,North,-999,-999.0,-999.0,-999,0.00,,,0.01,weatherlink.com 1.10,2013-05-18 02:41:00,
2013-05-17 22:56:00,-999.0,-99.9,26.51,North,-999,-999.0,-999.0,-999,0.00,,,0.01,weatherlink.com 1.10,2013-05-18 02:56:00,
2013-05-17 23:11:00,-999.0,-99.9,26.51,North,-999,-999.0,-999.0,-999,0.00,,,0.01,weatherlink.com 1.10,2013-05-18 03:11:00,
2013-05-17 23:26:00,-999.0,-99.9,26.51,North,-999,-999.0,-999.0,-999,0.00,,,0.01,weatherlink.com 1.10,2013-05-18 03:26:00,
2013-05-17 23:41:00,-999.0,-99.9,26.51,North,-999,-999.0,-999.0,-999,0.00,,,0.01,weatherlink.com 1.10,2013-05-18 03:41:00,
2013-05-17 23:56:00,-999.0,-99.9,26.50,North,-999,-999.0,-999.0,-999,0.00,,,0.01,weatherlink.com 1.10,2013-05-18 03:56:00,